createdAt,value
2023-03-02T00:01:58.157Z,-1.31
2023-03-02T00:04:29.662Z,-1.37
2023-03-02T00:07:05.621Z,-1.42
2023-03-02T00:09:34.461Z,-1.47
2023-03-02T00:12:03.403Z,-1.52
2023-03-02T00:14:32.520Z,-1.57
2023-03-02T00:17:03.188Z,-1.63
2023-03-02T00:19:32.102Z,-1.68
2023-03-02T00:22:00.625Z,-1.74
2023-03-02T00:24:29.521Z,-1.80
2023-03-02T00:26:58.822Z,-1.88
2023-03-02T00:29:27.510Z,-1.96
2023-03-02T00:31:56.115Z,-2.04
2023-03-02T00:34:24.770Z,-2.11
2023-03-02T00:36:53.222Z,-2.16
2023-03-02T00:39:21.647Z,-2.21
2023-03-02T00:41:50.281Z,-2.26
2023-03-02T00:44:18.768Z,-2.31
2023-03-02T00:46:47.576Z,-2.36
2023-03-02T00:49:17.938Z,-2.39
2023-03-02T00:51:49.290Z,-2.41
2023-03-02T00:54:17.783Z,-2.41
2023-03-02T00:56:46.801Z,-2.42
2023-03-02T00:59:27.741Z,-2.44
2023-03-02T01:02:07.659Z,-2.42
2023-03-02T01:04:40.726Z,-2.43
2023-03-02T01:07:12.643Z,-2.48
2023-03-02T01:09:42.362Z,-2.53
2023-03-02T01:12:11.633Z,-2.58
2023-03-02T01:14:42.942Z,-2.64
2023-03-02T01:17:11.432Z,-2.68
2023-03-02T01:19:41.469Z,-2.69
2023-03-02T01:22:10.147Z,-2.69
2023-03-02T01:24:44.695Z,-2.70
2023-03-02T01:27:13.572Z,-2.70
2023-03-02T01:29:42.123Z,-2.71
2023-03-02T01:32:10.762Z,-2.73
2023-03-02T01:34:39.752Z,-2.77
2023-03-02T01:37:08.194Z,-2.82
2023-03-02T01:39:36.814Z,-2.84
2023-03-02T01:42:07.313Z,-2.89
2023-03-02T01:44:40.201Z,-2.94
2023-03-02T01:47:15.504Z,-2.99
2023-03-02T01:49:53.631Z,-3.04
2023-03-02T01:52:24.205Z,-3.08
2023-03-02T01:54:54.060Z,-3.12
2023-03-02T01:57:24.254Z,-3.16
2023-03-02T01:59:59.883Z,-3.19
2023-03-02T02:02:28.538Z,-3.21
2023-03-02T02:04:57.454Z,-3.23
2023-03-02T02:07:25.840Z,-3.26
2023-03-02T02:09:56.978Z,-3.29
2023-03-02T02:12:26.422Z,-3.32
2023-03-02T02:15:00.829Z,-3.34
2023-03-02T02:17:30.408Z,-3.35
2023-03-02T02:20:09.721Z,-3.36
2023-03-02T02:22:38.125Z,-3.38
2023-03-02T02:25:10.631Z,-3.38
2023-03-02T02:27:41.093Z,-3.38
2023-03-02T02:30:11.588Z,-3.40
2023-03-02T02:32:40.255Z,-3.41
2023-03-02T02:35:15.007Z,-3.41
2023-03-02T02:37:46.413Z,-3.41
2023-03-02T02:40:22.747Z,-3.45
2023-03-02T02:42:51.860Z,-3.50
2023-03-02T02:45:25.499Z,-3.53
2023-03-02T02:47:55.360Z,-3.55
2023-03-02T02:50:32.414Z,-3.57
2023-03-02T02:53:15.503Z,-3.60
2023-03-02T02:55:47.537Z,-3.62
2023-03-02T02:58:42.621Z,-3.64
2023-03-02T03:01:14.101Z,-3.67
2023-03-02T03:03:46.819Z,-3.69
2023-03-02T03:06:23.453Z,-3.70
2023-03-02T03:08:54.414Z,-3.70
2023-03-02T03:11:29.132Z,-3.69
2023-03-02T03:14:18.877Z,-3.68
2023-03-02T03:16:51.369Z,-3.65
2023-03-02T03:19:27.156Z,-3.63
2023-03-02T03:21:57.623Z,-3.63
2023-03-02T03:24:33.060Z,-3.64
2023-03-02T03:27:02.191Z,-3.66
2023-03-02T03:29:31.733Z,-3.68
2023-03-02T03:32:02.064Z,-3.70
2023-03-02T03:34:41.057Z,-3.73
2023-03-02T03:37:30.410Z,-3.76
2023-03-02T03:40:06.592Z,-3.75
2023-03-02T03:42:39.997Z,-3.73
2023-03-02T03:45:09.190Z,-3.71
2023-03-02T03:47:38.646Z,-3.67
2023-03-02T03:50:09.576Z,-3.64
2023-03-02T03:52:38.740Z,-3.63
2023-03-02T03:55:33.722Z,-3.62
2023-03-02T03:58:03.204Z,-3.61
2023-03-02T04:00:31.690Z,-3.61
2023-03-02T04:03:03.896Z,-3.60
2023-03-02T04:05:33.856Z,-3.58
2023-03-02T04:08:03.867Z,-3.57
2023-03-02T04:10:35.048Z,-3.57
2023-03-02T04:13:04.705Z,-3.59
2023-03-02T04:15:34.599Z,-3.62
2023-03-02T04:18:03.401Z,-3.66
2023-03-02T04:20:33.378Z,-3.72
2023-03-02T04:23:02.132Z,-3.77
2023-03-02T04:25:33.832Z,-3.82
2023-03-02T04:28:08.399Z,-3.87
2023-03-02T04:30:45.155Z,-3.90
2023-03-02T04:33:14.161Z,-3.91
2023-03-02T04:35:43.056Z,-3.90
2023-03-02T04:38:12.796Z,-3.90
2023-03-02T04:40:41.574Z,-3.89
2023-03-02T04:43:11.281Z,-3.87
2023-03-02T04:45:40.914Z,-3.86
2023-03-02T04:48:13.972Z,-3.83
2023-03-02T04:50:45.256Z,-3.80
2023-03-02T04:53:14.771Z,-3.78
2023-03-02T04:55:43.267Z,-3.77
2023-03-02T04:58:14.723Z,-3.77
2023-03-02T05:00:43.109Z,-3.77
2023-03-02T05:03:11.820Z,-3.73
2023-03-02T05:05:40.255Z,-3.65
2023-03-02T05:08:08.996Z,-3.54
2023-03-02T05:10:41.572Z,-3.41
2023-03-02T05:13:10.026Z,-3.28
2023-03-02T05:15:39.964Z,-3.12
2023-03-02T05:18:10.744Z,-2.99
2023-03-02T05:20:39.451Z,-2.87
2023-03-02T05:23:25.314Z,-2.76
2023-03-02T05:25:55.377Z,-2.66
2023-03-02T05:28:27.020Z,-2.57
2023-03-02T05:30:55.838Z,-2.48
2023-03-02T05:33:24.725Z,-2.39
2023-03-02T05:35:53.213Z,-2.31
2023-03-02T05:38:21.661Z,-2.21
2023-03-02T05:40:50.428Z,-2.12
2023-03-02T05:43:20.671Z,-2.04
2023-03-02T05:45:50.333Z,-1.94
2023-03-02T05:48:20.201Z,-1.85
2023-03-02T05:50:48.739Z,-1.76
2023-03-02T05:53:17.232Z,-1.65
2023-03-02T05:55:45.674Z,-1.54
2023-03-02T05:58:15.999Z,-1.43
2023-03-02T06:00:50.661Z,-1.32
2023-03-02T06:03:19.449Z,-1.22
2023-03-02T06:05:52.528Z,-1.13
2023-03-02T06:08:23.309Z,-1.03
2023-03-02T06:10:56.235Z,-0.95
2023-03-02T06:13:24.600Z,-0.86
2023-03-02T06:15:53.134Z,-0.77
2023-03-02T06:18:21.988Z,-0.66
2023-03-02T06:20:50.987Z,-0.56
2023-03-02T06:23:19.980Z,-0.46
2023-03-02T06:25:49.245Z,-0.38
2023-03-02T06:28:20.209Z,-0.28
2023-03-02T06:30:49.181Z,-0.17
2023-03-02T06:33:21.706Z,-0.04
2023-03-02T06:35:50.640Z,0.10
2023-03-02T06:38:19.259Z,0.27
2023-03-02T06:40:47.785Z,0.43
2023-03-02T06:43:17.258Z,0.62
2023-03-02T06:45:45.815Z,0.80
2023-03-02T06:48:14.323Z,0.98
2023-03-02T06:50:42.861Z,1.13
2023-03-02T06:53:12.482Z,1.27
2023-03-02T06:55:40.951Z,1.39
2023-03-02T06:58:13.364Z,1.52
2023-03-02T07:00:41.847Z,1.66
2023-03-02T07:03:12.861Z,1.75
2023-03-02T07:05:41.560Z,1.89
2023-03-02T07:08:15.696Z,2.05
2023-03-02T07:10:44.883Z,2.24
2023-03-02T07:13:13.407Z,2.38
2023-03-02T07:15:45.640Z,2.54
2023-03-02T07:18:15.516Z,2.71
2023-03-02T07:20:43.953Z,2.83
2023-03-02T07:23:12.993Z,2.86
2023-03-02T07:25:41.832Z,2.86
2023-03-02T07:28:12.051Z,2.89
2023-03-02T07:30:40.587Z,2.90
2023-03-02T07:33:09.193Z,2.94
2023-03-02T07:35:37.897Z,3.03
2023-03-02T07:38:06.407Z,3.15
2023-03-02T07:40:35.039Z,3.21
2023-03-02T07:43:03.753Z,3.35
2023-03-02T07:45:33.869Z,3.44
2023-03-02T07:48:02.782Z,3.41
2023-03-02T07:50:33.381Z,3.41
2023-03-02T07:53:02.136Z,3.53
2023-03-02T07:55:30.981Z,3.69
2023-03-02T07:58:00.728Z,3.83
2023-03-02T08:00:29.870Z,3.90
2023-03-02T08:02:58.383Z,3.99
2023-03-02T08:05:28.878Z,4.07
2023-03-02T08:07:57.357Z,4.04
2023-03-02T08:10:27.006Z,3.99
2023-03-02T08:12:55.597Z,4.09
2023-03-02T08:15:25.627Z,4.16
2023-03-02T08:17:54.360Z,4.19
2023-03-02T08:20:23.160Z,4.22
2023-03-02T08:22:52.479Z,4.46
2023-03-02T08:25:20.995Z,4.55
2023-03-02T08:27:49.833Z,4.59
2023-03-02T08:30:22.521Z,4.75
2023-03-02T08:32:51.519Z,4.86
2023-03-02T08:35:22.510Z,4.89
2023-03-02T08:37:51.856Z,4.88
2023-03-02T08:40:21.800Z,4.90
2023-03-02T08:42:57.042Z,5.04
2023-03-02T08:45:25.949Z,5.22
2023-03-02T08:47:55.081Z,5.25
2023-03-02T08:50:23.738Z,5.27
2023-03-02T08:52:52.731Z,5.39
2023-03-02T08:55:22.328Z,5.46
2023-03-02T08:57:50.913Z,5.52
2023-03-02T09:00:20.711Z,5.64
2023-03-02T09:02:49.439Z,5.75
2023-03-02T09:05:18.257Z,5.84
2023-03-02T09:07:46.898Z,5.76
2023-03-02T09:10:18.134Z,5.68
2023-03-02T09:12:48.998Z,5.70
2023-03-02T09:15:17.780Z,5.54
2023-03-02T09:17:53.386Z,5.48
2023-03-02T09:20:23.954Z,5.67
2023-03-02T09:22:52.607Z,5.86
2023-03-02T09:25:21.404Z,6.11
2023-03-02T09:27:50.519Z,6.28
2023-03-02T09:30:20.014Z,6.36
2023-03-02T09:32:49.477Z,6.28
2023-03-02T09:35:18.399Z,6.19
2023-03-02T09:37:47.200Z,6.09
2023-03-02T09:40:24.182Z,6.14
2023-03-02T09:43:17.750Z,6.24
2023-03-02T09:45:55.089Z,6.21
2023-03-02T09:48:53.790Z,6.24
2023-03-02T09:51:33.157Z,6.33
2023-03-02T09:54:10.925Z,6.38
2023-03-02T09:56:50.002Z,6.50
2023-03-02T09:59:38.443Z,6.57
2023-03-02T10:02:16.286Z,6.62
2023-03-02T10:04:49.638Z,6.64
2023-03-02T10:07:24.493Z,6.69
2023-03-02T10:09:53.002Z,6.77
2023-03-02T10:12:36.153Z,6.91
2023-03-02T10:15:43.911Z,7.02
2023-03-02T10:18:31.022Z,6.91
2023-03-02T10:21:09.828Z,6.90
2023-03-02T10:24:05.450Z,6.95
2023-03-02T10:26:37.909Z,7.08
2023-03-02T10:29:49.412Z,7.14
2023-03-02T10:32:27.900Z,7.25
2023-03-02T10:35:02.549Z,7.19
2023-03-02T10:37:31.878Z,7.27
2023-03-02T10:40:11.736Z,7.35
2023-03-02T10:42:44.210Z,7.49
2023-03-02T10:45:30.223Z,7.64
2023-03-02T10:48:13.597Z,7.72
2023-03-02T10:50:43.238Z,7.77
2023-03-02T10:53:19.663Z,7.70
2023-03-02T10:55:53.270Z,7.49
2023-03-02T10:58:26.243Z,7.31
2023-03-02T11:00:57.582Z,7.26
2023-03-02T11:03:26.340Z,7.21
2023-03-02T11:05:56.203Z,7.09
2023-03-02T11:08:29.100Z,7.03
2023-03-02T11:11:01.504Z,7.00
2023-03-02T11:13:32.598Z,7.09
2023-03-02T11:16:21.817Z,7.28
2023-03-02T11:18:50.546Z,7.55
2023-03-02T11:21:33.521Z,7.54
2023-03-02T11:24:05.452Z,7.34
2023-03-02T11:26:58.326Z,7.01
2023-03-02T11:29:37.607Z,6.71
2023-03-02T11:32:13.626Z,6.58
2023-03-02T11:34:54.974Z,6.38
2023-03-02T11:37:44.731Z,6.18
2023-03-02T11:40:26.781Z,6.08
2023-03-02T11:42:56.964Z,6.06
2023-03-02T11:45:30.569Z,6.09
2023-03-02T11:48:03.330Z,6.17
2023-03-02T11:50:34.648Z,6.17
2023-03-02T11:53:08.286Z,6.13
2023-03-02T11:55:45.798Z,6.02
2023-03-02T11:58:18.800Z,5.91
2023-03-02T12:00:47.980Z,5.88
2023-03-02T12:03:17.345Z,5.80
2023-03-02T12:06:01.364Z,5.77
2023-03-02T12:08:35.459Z,5.69
2023-03-02T12:11:08.607Z,5.61
2023-03-02T12:13:38.634Z,5.59
2023-03-02T12:16:24.256Z,5.63
2023-03-02T12:18:53.481Z,5.68
2023-03-02T12:21:23.563Z,5.71
2023-03-02T12:23:52.531Z,5.73
2023-03-02T12:26:21.059Z,5.72
2023-03-02T12:29:00.386Z,5.66
2023-03-02T12:31:47.154Z,5.54
2023-03-02T12:34:29.094Z,5.46
2023-03-02T12:37:00.539Z,5.38
2023-03-02T12:39:28.996Z,5.29
2023-03-02T12:42:15.793Z,5.21
2023-03-02T12:44:52.564Z,5.16
2023-03-02T12:47:27.505Z,5.15
2023-03-02T12:50:01.940Z,5.14
2023-03-02T12:52:35.395Z,5.13
2023-03-02T12:55:08.282Z,5.17
2023-03-02T12:57:38.715Z,5.23
2023-03-02T13:00:15.538Z,5.25
2023-03-02T13:02:49.392Z,5.20
2023-03-02T13:05:29.334Z,5.09
2023-03-02T13:08:06.123Z,5.05
2023-03-02T13:10:40.684Z,4.99
2023-03-02T13:13:25.210Z,4.93
2023-03-02T13:15:55.879Z,4.93
2023-03-02T13:18:26.074Z,5.04
2023-03-02T13:20:55.974Z,5.23
2023-03-02T13:23:24.983Z,5.41
2023-03-02T13:25:58.375Z,5.52
2023-03-02T13:28:38.640Z,5.55
2023-03-02T13:31:23.130Z,5.54
2023-03-02T13:33:54.852Z,5.58
2023-03-02T13:36:28.431Z,5.61
2023-03-02T13:38:59.649Z,5.68
2023-03-02T13:41:30.106Z,5.76
2023-03-02T13:44:12.698Z,5.74
2023-03-02T13:46:42.390Z,5.80
2023-03-02T13:49:11.834Z,5.98
2023-03-02T13:51:42.734Z,5.98
2023-03-02T13:54:17.327Z,5.96
2023-03-02T13:56:46.149Z,5.97
2023-03-02T13:59:16.739Z,5.82
2023-03-02T14:01:45.494Z,5.92
2023-03-02T14:04:28.079Z,6.26
2023-03-02T14:07:00.029Z,6.50
2023-03-02T14:09:28.574Z,6.70
2023-03-02T14:12:03.390Z,6.68
2023-03-02T14:14:33.395Z,6.43
2023-03-02T14:17:01.840Z,6.33
2023-03-02T14:19:31.847Z,6.37
2023-03-02T14:22:00.639Z,6.37
2023-03-02T14:24:29.213Z,6.22
2023-03-02T14:26:57.634Z,6.07
2023-03-02T14:29:27.822Z,5.92
2023-03-02T14:32:00.524Z,5.81
2023-03-02T14:34:29.902Z,5.78
2023-03-02T14:36:59.810Z,5.71
2023-03-02T14:39:43.329Z,5.58
2023-03-02T14:42:12.661Z,5.41
2023-03-02T14:44:42.987Z,5.28
2023-03-02T14:47:11.881Z,5.15
2023-03-02T14:49:40.428Z,5.04
2023-03-02T14:52:32.736Z,4.94
2023-03-02T14:55:03.388Z,4.85
2023-03-02T14:57:33.984Z,4.75
2023-03-02T15:00:03.183Z,4.62
2023-03-02T15:02:32.068Z,4.51
2023-03-02T15:05:14.269Z,4.40
2023-03-02T15:07:44.265Z,4.31
2023-03-02T15:10:18.501Z,4.22
2023-03-02T15:12:47.011Z,4.12
2023-03-02T15:15:16.856Z,4.05
2023-03-02T15:17:45.860Z,3.97
2023-03-02T15:20:17.642Z,3.91
2023-03-02T15:22:47.392Z,3.85
2023-03-02T15:25:17.583Z,3.77
2023-03-02T15:27:47.162Z,3.69
2023-03-02T15:30:17.910Z,3.61
2023-03-02T15:32:47.851Z,3.53
2023-03-02T15:35:16.560Z,3.45
2023-03-02T15:37:45.712Z,3.37
2023-03-02T15:40:15.062Z,3.28
2023-03-02T15:42:43.525Z,3.18
2023-03-02T15:45:12.108Z,3.09
2023-03-02T15:47:40.597Z,2.99
2023-03-02T15:50:10.723Z,2.88
2023-03-02T15:52:39.332Z,2.78
2023-03-02T15:55:08.140Z,2.67
2023-03-02T15:57:39.256Z,2.58
2023-03-02T16:00:13.716Z,2.49
2023-03-02T16:02:43.523Z,2.40
2023-03-02T16:05:17.410Z,2.32
2023-03-02T16:07:46.895Z,2.25
2023-03-02T16:10:16.858Z,2.17
2023-03-02T16:12:45.282Z,2.07
2023-03-02T16:15:15.018Z,1.96
2023-03-02T16:17:44.151Z,1.87
2023-03-02T16:20:13.210Z,1.79
2023-03-02T16:22:41.780Z,1.73
2023-03-02T16:25:10.710Z,1.66
2023-03-02T16:27:39.506Z,1.62
2023-03-02T16:30:11.515Z,1.58
2023-03-02T16:32:40.734Z,1.53
2023-03-02T16:35:10.303Z,1.47
2023-03-02T16:37:41.377Z,1.41
2023-03-02T16:40:11.485Z,1.32
2023-03-02T16:42:41.729Z,1.27
2023-03-02T16:45:11.495Z,1.21
2023-03-02T16:47:40.202Z,1.16
2023-03-02T16:50:10.543Z,1.10
2023-03-02T16:52:39.080Z,1.03
2023-03-02T16:55:11.661Z,0.96
2023-03-02T16:57:41.126Z,0.90
2023-03-02T17:00:12.058Z,0.85
2023-03-02T17:02:41.085Z,0.80
2023-03-02T17:05:11.559Z,0.73
2023-03-02T17:07:42.094Z,0.66
2023-03-02T17:10:14.189Z,0.59
2023-03-02T17:12:43.483Z,0.53
2023-03-02T17:15:14.229Z,0.46
2023-03-02T17:17:42.974Z,0.39
2023-03-02T17:20:13.277Z,0.32
2023-03-02T17:22:41.835Z,0.26
2023-03-02T17:25:11.624Z,0.21
2023-03-02T17:27:40.804Z,0.20
2023-03-02T17:30:14.057Z,0.20
2023-03-02T17:32:42.595Z,0.20
2023-03-02T17:35:13.112Z,0.21
2023-03-02T17:37:42.044Z,0.22
2023-03-02T17:40:14.494Z,0.23
2023-03-02T17:42:43.805Z,0.24
2023-03-02T17:45:19.602Z,0.24
2023-03-02T17:47:49.744Z,0.23
2023-03-02T17:50:18.192Z,0.19
2023-03-02T17:52:47.901Z,0.16
2023-03-02T17:55:16.851Z,0.12
2023-03-02T17:57:45.517Z,0.08
2023-03-02T18:00:17.049Z,0.01
2023-03-02T18:02:46.793Z,-0.06
2023-03-02T18:05:16.099Z,-0.12
2023-03-02T18:07:44.604Z,-0.18
2023-03-02T18:10:13.639Z,-0.22
2023-03-02T18:12:42.723Z,-0.26
2023-03-02T18:15:12.064Z,-0.32
2023-03-02T18:17:40.549Z,-0.37
2023-03-02T18:20:10.227Z,-0.41
2023-03-02T18:22:38.622Z,-0.44
2023-03-02T18:25:08.010Z,-0.46
2023-03-02T18:27:40.525Z,-0.46
2023-03-02T18:30:09.992Z,-0.46
2023-03-02T18:32:39.442Z,-0.46
2023-03-02T18:35:08.262Z,-0.44
2023-03-02T18:37:37.844Z,-0.40
2023-03-02T18:40:07.262Z,-0.35
2023-03-02T18:42:36.666Z,-0.32
2023-03-02T18:45:07.402Z,-0.33
2023-03-02T18:47:36.879Z,-0.35
2023-03-02T18:50:05.807Z,-0.38
2023-03-02T18:52:34.729Z,-0.37
2023-03-02T18:55:04.934Z,-0.39
2023-03-02T18:57:34.258Z,-0.42
2023-03-02T19:00:03.766Z,-0.47
2023-03-02T19:02:32.616Z,-0.50
2023-03-02T19:05:01.926Z,-0.52
2023-03-02T19:07:37.078Z,-0.54
2023-03-02T19:10:07.728Z,-0.57
2023-03-02T19:12:41.324Z,-0.59
2023-03-02T19:15:11.018Z,-0.61
2023-03-02T19:17:40.437Z,-0.63
2023-03-02T19:20:16.888Z,-0.67
2023-03-02T19:22:45.277Z,-0.68
2023-03-02T19:25:13.807Z,-0.70
2023-03-02T19:27:42.282Z,-0.72
2023-03-02T19:30:16.753Z,-0.73
2023-03-02T19:32:45.555Z,-0.74
2023-03-02T19:35:18.118Z,-0.74
2023-03-02T19:37:46.612Z,-0.77
2023-03-02T19:40:17.587Z,-0.82
2023-03-02T19:42:46.431Z,-0.88
2023-03-02T19:45:17.177Z,-0.94
2023-03-02T19:47:47.311Z,-0.97
2023-03-02T19:50:35.646Z,-0.98
2023-03-02T19:53:06.157Z,-0.95
2023-03-02T19:55:34.577Z,-0.93
2023-03-02T19:58:05.109Z,-0.90
2023-03-02T20:00:34.498Z,-0.87
2023-03-02T20:03:06.242Z,-0.86
2023-03-02T20:05:37.390Z,-0.85
2023-03-02T20:08:07.106Z,-0.84
2023-03-02T20:10:38.384Z,-0.85
2023-03-02T20:13:07.069Z,-0.87
2023-03-02T20:15:39.330Z,-0.88
2023-03-02T20:18:10.045Z,-0.91
2023-03-02T20:36:31.945Z,-1.22
2023-03-02T20:39:05.811Z,-1.27
2023-03-02T20:41:34.185Z,-1.29
2023-03-02T20:44:04.099Z,-1.29
2023-03-02T20:46:36.662Z,-1.30
2023-03-02T20:49:09.726Z,-1.29
2023-03-02T20:51:39.342Z,-1.27
2023-03-02T20:54:07.957Z,-1.26
2023-03-02T20:56:37.502Z,-1.26
2023-03-02T20:59:06.213Z,-1.26
2023-03-02T21:01:34.618Z,-1.27
2023-03-02T21:04:03.603Z,-1.27
2023-03-02T21:06:36.558Z,-1.27
2023-03-02T21:09:06.638Z,-1.25
2023-03-02T21:11:41.516Z,-1.24
2023-03-02T21:14:14.358Z,-1.25
2023-03-02T21:16:43.693Z,-1.26
2023-03-02T21:19:18.727Z,-1.28
2023-03-02T21:21:47.439Z,-1.32
2023-03-02T21:24:17.153Z,-1.34
2023-03-02T21:26:46.489Z,-1.39
2023-03-02T21:29:15.260Z,-1.44
2023-03-02T21:31:44.194Z,-1.50
2023-03-02T21:34:13.053Z,-1.56
2023-03-02T21:36:42.865Z,-1.62
2023-03-02T21:39:12.277Z,-1.66
2023-03-02T21:41:40.658Z,-1.66
2023-03-02T21:44:09.372Z,-1.62
2023-03-02T21:46:39.586Z,-1.59
2023-03-02T21:49:08.050Z,-1.56
2023-03-02T21:51:36.530Z,-1.55
2023-03-02T21:54:05.783Z,-1.54
2023-03-02T21:56:35.699Z,-1.54
2023-03-02T21:59:06.165Z,-1.55
2023-03-02T22:01:35.076Z,-1.55
2023-03-02T22:04:03.732Z,-1.55
2023-03-02T22:06:33.500Z,-1.54
2023-03-02T22:09:02.104Z,-1.54
2023-03-02T22:11:33.169Z,-1.55
2023-03-02T22:14:15.929Z,-1.58
2023-03-02T22:16:47.575Z,-1.64
2023-03-02T22:19:31.974Z,-1.67
2023-03-02T22:22:01.419Z,-1.72
2023-03-02T22:24:34.142Z,-1.76
2023-03-02T22:27:29.596Z,-1.80
2023-03-02T22:30:00.297Z,-1.80
2023-03-02T22:32:36.623Z,-1.80
2023-03-02T22:35:22.288Z,-1.82
2023-03-02T22:37:54.759Z,-1.86
2023-03-02T22:40:30.113Z,-1.90
2023-03-02T22:43:31.620Z,-1.94
2023-03-02T22:46:15.658Z,-2.01
2023-03-02T22:48:45.614Z,-2.06
2023-03-02T22:51:15.421Z,-2.09
2023-03-02T22:54:07.897Z,-2.13
2023-03-02T22:56:57.172Z,-2.16
2023-03-02T22:59:27.004Z,-2.18
2023-03-02T23:02:00.221Z,-2.21
2023-03-02T23:04:32.434Z,-2.25
2023-03-02T23:07:01.331Z,-2.29
2023-03-02T23:09:34.219Z,-2.33
2023-03-02T23:12:26.935Z,-2.36
2023-03-02T23:14:58.696Z,-2.39
2023-03-02T23:17:39.194Z,-2.40
2023-03-02T23:20:11.131Z,-2.38
2023-03-02T23:22:40.384Z,-2.38
2023-03-02T23:25:09.441Z,-2.39
2023-03-02T23:27:38.854Z,-2.39
2023-03-02T23:30:07.888Z,-2.38
2023-03-02T23:32:36.853Z,-2.37
2023-03-02T23:35:06.042Z,-2.34
2023-03-02T23:37:35.425Z,-2.32
2023-03-02T23:40:04.589Z,-2.29
2023-03-02T23:42:33.508Z,-2.29
2023-03-02T23:45:01.951Z,-2.31
2023-03-02T23:47:31.480Z,-2.34
2023-03-02T23:50:00.103Z,-2.38
2023-03-02T23:52:28.832Z,-2.42
2023-03-02T23:54:57.403Z,-2.46
2023-03-02T23:57:27.154Z,-2.50
2023-03-02T23:59:56.177Z,-2.52
